sensor_id;sensor_type;location;lat;lon;timestamp;pressure;altitude;pressure_sealevel;temperature;humidity
11329;BME280;5719;42.714;23.732;2023-09-19T00:01:39;94854.97;;;14.11;100.00
11329;BME280;5719;42.714;23.732;2023-09-19T00:04:08;94851.19;;;14.15;100.00
11329;BME280;5719;42.714;23.732;2023-09-19T00:06:35;94853.13;;;14.02;100.00
11329;BME280;5719;42.714;23.732;2023-09-19T00:09:02;94849.97;;;13.87;100.00
11329;BME280;5719;42.714;23.732;2023-09-19T00:11:29;94848.97;;;13.88;100.00
11329;BME280;5719;42.714;23.732;2023-09-19T00:13:56;94832.00;;;13.84;100.00
11329;BME280;5719;42.714;23.732;2023-09-19T00:16:25;94832.13;;;13.83;100.00
11329;BME280;5719;42.714;23.732;2023-09-19T00:18:52;94851.25;;;13.70;100.00
11329;BME280;5719;42.714;23.732;2023-09-19T00:21:20;94848.81;;;13.69;100.00
11329;BME280;5719;42.714;23.732;2023-09-19T00:23:47;94853.03;;;13.70;100.00
11329;BME280;5719;42.714;23.732;2023-09-19T00:26:14;94853.75;;;13.61;100.00
11329;BME280;5719;42.714;23.732;2023-09-19T00:28:43;94851.16;;;13.61;100.00
11329;BME280;5719;42.714;23.732;2023-09-19T00:31:10;94850.81;;;13.54;100.00
11329;BME280;5719;42.714;23.732;2023-09-19T00:33:37;94850.81;;;13.54;100.00
11329;BME280;5719;42.714;23.732;2023-09-19T00:36:04;94870.63;;;13.55;100.00
11329;BME280;5719;42.714;23.732;2023-09-19T00:38:32;94853.41;;;13.54;100.00
11329;BME280;5719;42.714;23.732;2023-09-19T00:40:59;94854.34;;;13.53;100.00
11329;BME280;5719;42.714;23.732;2023-09-19T00:43:26;94864.84;;;13.41;100.00
11329;BME280;5719;42.714;23.732;2023-09-19T00:45:55;94857.78;;;13.43;100.00
11329;BME280;5719;42.714;23.732;2023-09-19T00:48:23;94833.91;;;13.38;100.00
11329;BME280;5719;42.714;23.732;2023-09-19T00:50:54;94837.00;;;13.43;100.00
11329;BME280;5719;42.714;23.732;2023-09-19T00:53:23;94841.94;;;13.46;100.00
11329;BME280;5719;42.714;23.732;2023-09-19T00:55:54;94837.84;;;13.43;100.00
11329;BME280;5719;42.714;23.732;2023-09-19T00:58:21;94842.78;;;13.35;100.00
11329;BME280;5719;42.714;23.732;2023-09-19T01:00:49;94842.66;;;13.25;100.00
11329;BME280;5719;42.714;23.732;2023-09-19T01:03:17;94846.31;;;13.23;100.00
11329;BME280;5719;42.714;23.732;2023-09-19T01:05:44;94847.66;;;13.05;100.00
11329;BME280;5719;42.714;23.732;2023-09-19T01:08:10;94855.44;;;12.94;100.00
11329;BME280;5719;42.714;23.732;2023-09-19T01:10:43;94847.78;;;12.92;100.00
11329;BME280;5719;42.714;23.732;2023-09-19T01:13:21;94853.44;;;12.97;100.00
11329;BME280;5719;42.714;23.732;2023-09-19T01:15:53;94852.16;;;12.92;100.00
11329;BME280;5719;42.714;23.732;2023-09-19T01:18:29;94854.16;;;12.99;100.00
11329;BME280;5719;42.714;23.732;2023-09-19T01:21:05;94854.03;;;13.01;100.00
11329;BME280;5719;42.714;23.732;2023-09-19T01:23:49;94842.34;;;12.95;100.00
11329;BME280;5719;42.714;23.732;2023-09-19T01:26:43;94835.88;;;13.01;100.00
11329;BME280;5719;42.714;23.732;2023-09-19T01:29:26;94844.63;;;13.00;100.00
11329;BME280;5719;42.714;23.732;2023-09-19T01:32:04;94840.47;;;12.97;100.00
11329;BME280;5719;42.714;23.732;2023-09-19T01:34:44;94833.97;;;12.92;100.00
11329;BME280;5719;42.714;23.732;2023-09-19T01:37:12;94830.66;;;12.90;100.00
11329;BME280;5719;42.714;23.732;2023-09-19T01:39:39;94834.19;;;12.77;100.00
11329;BME280;5719;42.714;23.732;2023-09-19T01:42:12;94838.22;;;12.82;100.00
11329;BME280;5719;42.714;23.732;2023-09-19T01:44:59;94837.25;;;12.83;100.00
11329;BME280;5719;42.714;23.732;2023-09-19T01:47:33;94835.34;;;12.73;100.00
11329;BME280;5719;42.714;23.732;2023-09-19T01:50:07;94835.81;;;12.67;100.00
11329;BME280;5719;42.714;23.732;2023-09-19T01:52:45;94828.03;;;12.67;100.00
11329;BME280;5719;42.714;23.732;2023-09-19T01:55:14;94833.94;;;12.69;100.00
11329;BME280;5719;42.714;23.732;2023-09-19T01:57:49;94828.59;;;12.60;100.00
11329;BME280;5719;42.714;23.732;2023-09-19T02:00:20;94827.09;;;12.68;100.00
11329;BME280;5719;42.714;23.732;2023-09-19T02:02:50;94824.03;;;12.63;100.00
11329;BME280;5719;42.714;23.732;2023-09-19T02:05:23;94823.28;;;12.61;100.00
11329;BME280;5719;42.714;23.732;2023-09-19T02:07:51;94819.31;;;12.68;100.00
11329;BME280;5719;42.714;23.732;2023-09-19T02:10:19;94819.06;;;12.71;100.00
11329;BME280;5719;42.714;23.732;2023-09-19T02:12:46;94826.50;;;12.76;100.00
11329;BME280;5719;42.714;23.732;2023-09-19T02:15:13;94815.09;;;12.78;100.00
11329;BME280;5719;42.714;23.732;2023-09-19T02:17:41;94812.25;;;12.70;100.00
11329;BME280;5719;42.714;23.732;2023-09-19T02:20:10;94816.25;;;12.63;100.00
11329;BME280;5719;42.714;23.732;2023-09-19T02:22:40;94812.78;;;12.52;100.00
11329;BME280;5719;42.714;23.732;2023-09-19T02:25:08;94817.00;;;12.42;100.00
11329;BME280;5719;42.714;23.732;2023-09-19T02:27:35;94817.69;;;12.44;100.00
11329;BME280;5719;42.714;23.732;2023-09-19T02:30:03;94817.38;;;12.48;100.00
11329;BME280;5719;42.714;23.732;2023-09-19T02:32:31;94820.66;;;12.50;100.00
11329;BME280;5719;42.714;23.732;2023-09-19T02:35:01;94820.56;;;12.52;100.00
11329;BME280;5719;42.714;23.732;2023-09-19T02:37:31;94808.66;;;12.49;100.00
11329;BME280;5719;42.714;23.732;2023-09-19T02:39:58;94811.84;;;12.53;100.00
11329;BME280;5719;42.714;23.732;2023-09-19T02:42:24;94803.84;;;12.56;100.00
11329;BME280;5719;42.714;23.732;2023-09-19T02:44:51;94811.72;;;12.54;100.00
11329;BME280;5719;42.714;23.732;2023-09-19T02:47:18;94818.44;;;12.57;100.00
11329;BME280;5719;42.714;23.732;2023-09-19T02:49:45;94816.47;;;12.60;100.00
11329;BME280;5719;42.714;23.732;2023-09-19T02:52:12;94823.88;;;12.65;100.00
11329;BME280;5719;42.714;23.732;2023-09-19T02:54:41;94817.53;;;12.69;100.00
11329;BME280;5719;42.714;23.732;2023-09-19T02:57:10;94806.09;;;12.60;100.00
11329;BME280;5719;42.714;23.732;2023-09-19T02:59:39;94787.22;;;12.58;100.00
11329;BME280;5719;42.714;23.732;2023-09-19T03:02:07;94805.16;;;12.72;100.00
11329;BME280;5719;42.714;23.732;2023-09-19T03:04:34;94796.69;;;12.70;100.00
11329;BME280;5719;42.714;23.732;2023-09-19T03:07:01;94797.13;;;12.64;100.00
11329;BME280;5719;42.714;23.732;2023-09-19T03:09:31;94800.44;;;12.66;100.00
11329;BME280;5719;42.714;23.732;2023-09-19T03:11:59;94792.50;;;12.57;100.00
11329;BME280;5719;42.714;23.732;2023-09-19T03:14:26;94790.97;;;12.54;100.00
11329;BME280;5719;42.714;23.732;2023-09-19T03:16:55;94784.81;;;12.44;100.00
11329;BME280;5719;42.714;23.732;2023-09-19T03:19:23;94770.75;;;12.36;100.00
11329;BME280;5719;42.714;23.732;2023-09-19T03:21:51;94772.53;;;12.35;100.00
11329;BME280;5719;42.714;23.732;2023-09-19T03:24:19;94767.94;;;12.27;100.00
11329;BME280;5719;42.714;23.732;2023-09-19T03:26:46;94762.47;;;12.19;100.00
11329;BME280;5719;42.714;23.732;2023-09-19T03:29:14;94768.06;;;12.02;100.00
11329;BME280;5719;42.714;23.732;2023-09-19T03:31:42;94769.56;;;11.94;100.00
11329;BME280;5719;42.714;23.732;2023-09-19T03:34:09;94757.63;;;11.80;100.00
11329;BME280;5719;42.714;23.732;2023-09-19T03:36:36;94771.66;;;11.89;100.00
11329;BME280;5719;42.714;23.732;2023-09-19T03:39:03;94767.31;;;11.89;100.00
11329;BME280;5719;42.714;23.732;2023-09-19T03:41:31;94776.84;;;11.89;100.00
11329;BME280;5719;42.714;23.732;2023-09-19T03:43:58;94766.88;;;11.71;100.00
11329;BME280;5719;42.714;23.732;2023-09-19T03:46:27;94784.59;;;11.65;100.00
11329;BME280;5719;42.714;23.732;2023-09-19T03:48:54;94777.78;;;11.51;100.00
11329;BME280;5719;42.714;23.732;2023-09-19T03:51:21;94794.09;;;11.64;100.00
11329;BME280;5719;42.714;23.732;2023-09-19T03:53:49;94783.00;;;11.75;100.00
11329;BME280;5719;42.714;23.732;2023-09-19T03:56:16;94779.97;;;11.81;100.00
11329;BME280;5719;42.714;23.732;2023-09-19T03:58:43;94788.25;;;11.86;100.00
11329;BME280;5719;42.714;23.732;2023-09-19T04:01:10;94774.16;;;11.90;100.00
11329;BME280;5719;42.714;23.732;2023-09-19T04:03:40;94774.00;;;11.92;100.00
11329;BME280;5719;42.714;23.732;2023-09-19T04:06:13;94778.66;;;11.99;100.00
11329;BME280;5719;42.714;23.732;2023-09-19T04:08:40;94777.63;;;12.02;100.00
11329;BME280;5719;42.714;23.732;2023-09-19T04:11:07;94789.28;;;12.07;100.00
11329;BME280;5719;42.714;23.732;2023-09-19T04:13:34;94788.59;;;12.05;100.00
11329;BME280;5719;42.714;23.732;2023-09-19T04:16:01;94790.94;;;12.08;100.00
11329;BME280;5719;42.714;23.732;2023-09-19T04:18:28;94793.22;;;12.13;100.00
11329;BME280;5719;42.714;23.732;2023-09-19T04:20:57;94794.16;;;12.12;100.00
11329;BME280;5719;42.714;23.732;2023-09-19T04:23:25;94786.03;;;12.16;100.00
11329;BME280;5719;42.714;23.732;2023-09-19T04:25:52;94792.16;;;12.15;100.00
11329;BME280;5719;42.714;23.732;2023-09-19T04:28:19;94789.06;;;12.10;100.00
11329;BME280;5719;42.714;23.732;2023-09-19T04:30:46;94786.84;;;12.17;100.00
11329;BME280;5719;42.714;23.732;2023-09-19T04:33:13;94789.34;;;12.18;100.00
11329;BME280;5719;42.714;23.732;2023-09-19T04:35:40;94799.47;;;12.21;100.00
11329;BME280;5719;42.714;23.732;2023-09-19T04:38:09;94800.16;;;12.12;100.00
11329;BME280;5719;42.714;23.732;2023-09-19T04:40:37;94805.13;;;12.15;100.00
11329;BME280;5719;42.714;23.732;2023-09-19T04:43:05;94802.25;;;12.07;100.00
11329;BME280;5719;42.714;23.732;2023-09-19T04:45:33;94806.38;;;12.10;100.00
11329;BME280;5719;42.714;23.732;2023-09-19T04:48:00;94797.66;;;12.11;100.00
11329;BME280;5719;42.714;23.732;2023-09-19T04:50:28;94801.31;;;12.08;100.00
11329;BME280;5719;42.714;23.732;2023-09-19T04:52:55;94809.56;;;12.13;100.00
11329;BME280;5719;42.714;23.732;2023-09-19T04:55:24;94811.34;;;12.13;100.00
11329;BME280;5719;42.714;23.732;2023-09-19T04:57:51;94805.59;;;12.20;100.00
11329;BME280;5719;42.714;23.732;2023-09-19T05:00:19;94797.97;;;12.30;100.00
11329;BME280;5719;42.714;23.732;2023-09-19T05:02:49;94798.94;;;12.40;100.00
11329;BME280;5719;42.714;23.732;2023-09-19T05:05:17;94799.44;;;12.45;100.00
11329;BME280;5719;42.714;23.732;2023-09-19T05:07:45;94800.16;;;12.47;100.00
11329;BME280;5719;42.714;23.732;2023-09-19T05:10:12;94798.50;;;12.11;100.00
11329;BME280;5719;42.714;23.732;2023-09-19T05:12:41;94801.03;;;12.00;100.00
11329;BME280;5719;42.714;23.732;2023-09-19T05:15:10;94785.81;;;12.19;100.00
11329;BME280;5719;42.714;23.732;2023-09-19T05:17:37;94785.38;;;12.37;100.00
11329;BME280;5719;42.714;23.732;2023-09-19T05:20:06;94790.59;;;12.48;100.00
11329;BME280;5719;42.714;23.732;2023-09-19T05:22:46;94793.13;;;12.71;100.00
11329;BME280;5719;42.714;23.732;2023-09-19T05:25:13;94783.94;;;12.90;100.00
11329;BME280;5719;42.714;23.732;2023-09-19T05:27:43;94767.00;;;12.97;100.00
11329;BME280;5719;42.714;23.732;2023-09-19T05:30:11;94787.56;;;13.22;100.00
11329;BME280;5719;42.714;23.732;2023-09-19T05:32:39;94762.88;;;13.27;100.00
11329;BME280;5719;42.714;23.732;2023-09-19T05:35:06;94775.50;;;13.43;100.00
11329;BME280;5719;42.714;23.732;2023-09-19T05:37:35;94770.53;;;13.62;100.00
11329;BME280;5719;42.714;23.732;2023-09-19T05:40:02;94774.13;;;13.82;100.00
11329;BME280;5719;42.714;23.732;2023-09-19T05:42:35;94770.53;;;13.94;100.00
11329;BME280;5719;42.714;23.732;2023-09-19T05:45:04;94764.91;;;14.10;100.00
11329;BME280;5719;42.714;23.732;2023-09-19T05:47:31;94765.59;;;14.23;100.00
11329;BME280;5719;42.714;23.732;2023-09-19T05:49:58;94757.63;;;14.36;100.00
11329;BME280;5719;42.714;23.732;2023-09-19T05:52:26;94763.47;;;14.49;100.00
11329;BME280;5719;42.714;23.732;2023-09-19T05:54:52;94763.16;;;14.63;100.00
11329;BME280;5719;42.714;23.732;2023-09-19T05:57:19;94764.50;;;14.78;100.00
11329;BME280;5719;42.714;23.732;2023-09-19T05:59:47;94756.38;;;15.02;100.00
11329;BME280;5719;42.714;23.732;2023-09-19T06:02:17;94750.59;;;15.19;100.00
11329;BME280;5719;42.714;23.732;2023-09-19T06:04:45;94747.34;;;15.36;100.00
11329;BME280;5719;42.714;23.732;2023-09-19T06:07:12;94749.34;;;15.53;100.00
11329;BME280;5719;42.714;23.732;2023-09-19T06:09:39;94747.59;;;15.73;100.00
11329;BME280;5719;42.714;23.732;2023-09-19T06:12:06;94750.94;;;15.94;100.00
11329;BME280;5719;42.714;23.732;2023-09-19T06:14:33;94733.50;;;16.04;100.00
11329;BME280;5719;42.714;23.732;2023-09-19T06:17:00;94740.94;;;16.28;100.00
11329;BME280;5719;42.714;23.732;2023-09-19T06:19:28;94745.81;;;16.50;100.00
11329;BME280;5719;42.714;23.732;2023-09-19T06:21:55;94738.16;;;16.68;100.00
11329;BME280;5719;42.714;23.732;2023-09-19T06:24:24;94744.56;;;16.83;100.00
11329;BME280;5719;42.714;23.732;2023-09-19T06:26:51;94725.16;;;16.95;100.00
11329;BME280;5719;42.714;23.732;2023-09-19T06:29:19;94732.41;;;17.11;100.00
11329;BME280;5719;42.714;23.732;2023-09-19T06:31:46;94735.91;;;17.29;100.00
11329;BME280;5719;42.714;23.732;2023-09-19T06:34:13;94740.59;;;17.53;100.00
11329;BME280;5719;42.714;23.732;2023-09-19T06:36:42;94733.50;;;17.73;100.00
11329;BME280;5719;42.714;23.732;2023-09-19T06:39:10;94736.00;;;17.92;100.00
11329;BME280;5719;42.714;23.732;2023-09-19T06:41:37;94726.59;;;17.99;100.00
11329;BME280;5719;42.714;23.732;2023-09-19T06:44:05;94734.22;;;18.10;98.81
11329;BME280;5719;42.714;23.732;2023-09-19T06:46:32;94732.47;;;18.19;98.50
11329;BME280;5719;42.714;23.732;2023-09-19T06:49:00;94736.22;;;18.34;99.54
11329;BME280;5719;42.714;23.732;2023-09-19T06:51:31;94737.78;;;18.44;92.84
11329;BME280;5719;42.714;23.732;2023-09-19T06:54:01;94739.22;;;18.56;92.17
11329;BME280;5719;42.714;23.732;2023-09-19T06:56:30;94745.34;;;18.65;91.25
11329;BME280;5719;42.714;23.732;2023-09-19T06:58:58;94741.59;;;18.68;88.12
11329;BME280;5719;42.714;23.732;2023-09-19T07:01:25;94740.31;;;18.72;88.64
11329;BME280;5719;42.714;23.732;2023-09-19T07:03:51;94740.06;;;18.83;85.93
11329;BME280;5719;42.714;23.732;2023-09-19T07:06:18;94752.63;;;18.97;85.63
11329;BME280;5719;42.714;23.732;2023-09-19T07:08:45;94739.19;;;19.00;85.30
11329;BME280;5719;42.714;23.732;2023-09-19T07:11:14;94744.81;;;19.05;84.25
11329;BME280;5719;42.714;23.732;2023-09-19T07:13:41;94744.81;;;19.05;84.74
11329;BME280;5719;42.714;23.732;2023-09-19T07:16:08;94750.19;;;19.03;84.66
11329;BME280;5719;42.714;23.732;2023-09-19T07:18:44;94739.84;;;19.02;83.42
11329;BME280;5719;42.714;23.732;2023-09-19T07:21:11;94751.53;;;19.07;84.77
11329;BME280;5719;42.714;23.732;2023-09-19T07:23:40;94754.84;;;19.18;83.34
11329;BME280;5719;42.714;23.732;2023-09-19T07:26:07;94748.72;;;19.35;83.88
11329;BME280;5719;42.714;23.732;2023-09-19T07:28:35;94753.81;;;19.62;80.62
11329;BME280;5719;42.714;23.732;2023-09-19T07:31:02;94753.53;;;19.89;77.50
11329;BME280;5719;42.714;23.732;2023-09-19T07:33:30;94756.56;;;20.19;74.64
11329;BME280;5719;42.714;23.732;2023-09-19T07:35:57;94756.16;;;20.39;74.78
11329;BME280;5719;42.714;23.732;2023-09-19T07:38:24;94751.91;;;20.46;72.93
11329;BME280;5719;42.714;23.732;2023-09-19T07:40:52;94739.25;;;20.58;73.29
11329;BME280;5719;42.714;23.732;2023-09-19T07:43:20;94736.78;;;20.57;69.89
11329;BME280;5719;42.714;23.732;2023-09-19T07:45:48;94736.78;;;20.65;69.80
11329;BME280;5719;42.714;23.732;2023-09-19T07:48:15;94730.88;;;20.63;68.09
11329;BME280;5719;42.714;23.732;2023-09-19T07:50:42;94729.41;;;20.68;70.10
11329;BME280;5719;42.714;23.732;2023-09-19T07:53:10;94722.00;;;20.80;68.64
11329;BME280;5719;42.714;23.732;2023-09-19T07:55:38;94713.94;;;20.81;66.26
11329;BME280;5719;42.714;23.732;2023-09-19T07:58:06;94721.31;;;20.94;68.16
11329;BME280;5719;42.714;23.732;2023-09-19T08:00:33;94724.94;;;21.01;65.85
11329;BME280;5719;42.714;23.732;2023-09-19T08:03:02;94728.53;;;21.08;66.42
11329;BME280;5719;42.714;23.732;2023-09-19T08:05:29;94726.88;;;21.07;67.41
11329;BME280;5719;42.714;23.732;2023-09-19T08:07:56;94723.78;;;21.12;65.99
11329;BME280;5719;42.714;23.732;2023-09-19T08:10:24;94717.03;;;21.17;67.31
11329;BME280;5719;42.714;23.732;2023-09-19T08:12:53;94722.69;;;21.45;66.52
11329;BME280;5719;42.714;23.732;2023-09-19T08:15:23;94718.53;;;21.59;64.90
11329;BME280;5719;42.714;23.732;2023-09-19T08:17:50;94719.34;;;21.59;65.19
11329;BME280;5719;42.714;23.732;2023-09-19T08:20:18;94723.41;;;21.70;64.85
11329;BME280;5719;42.714;23.732;2023-09-19T08:22:48;94714.66;;;21.77;64.95
11329;BME280;5719;42.714;23.732;2023-09-19T08:25:18;94728.25;;;21.89;63.13
11329;BME280;5719;42.714;23.732;2023-09-19T08:27:45;94731.88;;;21.96;62.29
11329;BME280;5719;42.714;23.732;2023-09-19T08:30:13;94734.94;;;22.08;61.69
11329;BME280;5719;42.714;23.732;2023-09-19T08:32:41;94719.47;;;22.05;60.34
11329;BME280;5719;42.714;23.732;2023-09-19T08:35:08;94723.75;;;22.06;61.43
11329;BME280;5719;42.714;23.732;2023-09-19T08:37:37;94725.00;;;22.18;60.27
11329;BME280;5719;42.714;23.732;2023-09-19T08:40:04;94727.00;;;22.38;60.43
11329;BME280;5719;42.714;23.732;2023-09-19T08:42:47;94718.44;;;22.36;61.59
11329;BME280;5719;42.714;23.732;2023-09-19T08:45:14;94721.94;;;22.52;62.02
11329;BME280;5719;42.714;23.732;2023-09-19T08:47:46;94723.22;;;22.56;61.46
11329;BME280;5719;42.714;23.732;2023-09-19T08:50:19;94726.63;;;22.41;61.56
11329;BME280;5719;42.714;23.732;2023-09-19T08:52:49;94721.31;;;22.49;60.09
11329;BME280;5719;42.714;23.732;2023-09-19T08:55:19;94708.91;;;22.58;61.25
11329;BME280;5719;42.714;23.732;2023-09-19T08:57:49;94712.94;;;22.69;60.39
11329;BME280;5719;42.714;23.732;2023-09-19T09:00:16;94710.94;;;22.71;61.91
11329;BME280;5719;42.714;23.732;2023-09-19T09:02:46;94712.94;;;22.69;60.86
11329;BME280;5719;42.714;23.732;2023-09-19T09:05:15;94703.69;;;22.73;61.04
11329;BME280;5719;42.714;23.732;2023-09-19T09:07:49;94691.50;;;22.72;59.73
11329;BME280;5719;42.714;23.732;2023-09-19T09:10:17;94698.69;;;22.78;60.20
11329;BME280;5719;42.714;23.732;2023-09-19T09:12:47;94693.06;;;22.95;61.08
11329;BME280;5719;42.714;23.732;2023-09-19T09:15:16;94698.28;;;23.18;59.29
11329;BME280;5719;42.714;23.732;2023-09-19T09:17:46;94695.13;;;23.37;59.85
11329;BME280;5719;42.714;23.732;2023-09-19T09:20:16;94694.94;;;23.54;61.16
11329;BME280;5719;42.714;23.732;2023-09-19T09:22:52;94697.38;;;23.70;59.58
11329;BME280;5719;42.714;23.732;2023-09-19T09:25:20;94690.53;;;23.75;56.62
11329;BME280;5719;42.714;23.732;2023-09-19T09:27:58;94689.88;;;23.88;60.35
11329;BME280;5719;42.714;23.732;2023-09-19T09:30:34;94691.34;;;24.12;56.58
11329;BME280;5719;42.714;23.732;2023-09-19T09:33:08;94687.31;;;24.30;55.67
11329;BME280;5719;42.714;23.732;2023-09-19T09:35:36;94687.75;;;24.55;56.77
11329;BME280;5719;42.714;23.732;2023-09-19T09:38:05;94685.91;;;24.77;54.54
11329;BME280;5719;42.714;23.732;2023-09-19T09:40:46;94671.41;;;24.94;54.10
11329;BME280;5719;42.714;23.732;2023-09-19T09:43:33;94679.53;;;25.20;52.76
11329;BME280;5719;42.714;23.732;2023-09-19T09:46:14;94677.34;;;25.30;52.72
11329;BME280;5719;42.714;23.732;2023-09-19T09:49:10;94672.09;;;25.44;50.50
11329;BME280;5719;42.714;23.732;2023-09-19T09:51:46;94676.72;;;25.63;52.21
11329;BME280;5719;42.714;23.732;2023-09-19T09:54:25;94662.53;;;25.83;51.68
11329;BME280;5719;42.714;23.732;2023-09-19T09:56:55;94672.78;;;26.06;50.37
11329;BME280;5719;42.714;23.732;2023-09-19T09:59:46;94666.16;;;26.30;48.24
11329;BME280;5719;42.714;23.732;2023-09-19T10:02:15;94657.63;;;26.54;48.35
11329;BME280;5719;42.714;23.732;2023-09-19T10:04:48;94671.28;;;26.71;47.59
11329;BME280;5719;42.714;23.732;2023-09-19T10:07:30;94664.75;;;26.67;47.56
11329;BME280;5719;42.714;23.732;2023-09-19T10:10:05;94661.50;;;26.65;46.91
11329;BME280;5719;42.714;23.732;2023-09-19T10:12:44;94659.03;;;26.44;46.64
11329;BME280;5719;42.714;23.732;2023-09-19T10:15:14;94627.22;;;26.37;48.79
11329;BME280;5719;42.714;23.732;2023-09-19T10:17:43;94652.50;;;26.79;46.40
11329;BME280;5719;42.714;23.732;2023-09-19T10:20:14;94644.97;;;26.89;47.17
11329;BME280;5719;42.714;23.732;2023-09-19T10:22:59;94635.16;;;26.96;47.25
11329;BME280;5719;42.714;23.732;2023-09-19T10:25:28;94634.94;;;27.11;45.15
11329;BME280;5719;42.714;23.732;2023-09-19T10:27:57;94644.75;;;27.17;45.60
11329;BME280;5719;42.714;23.732;2023-09-19T10:30:28;94644.53;;;27.25;45.61
11329;BME280;5719;42.714;23.732;2023-09-19T10:33:00;94641.28;;;27.16;46.10
11329;BME280;5719;42.714;23.732;2023-09-19T10:35:28;94640.09;;;26.99;45.65
11329;BME280;5719;42.714;23.732;2023-09-19T10:37:57;94644.19;;;26.95;48.00
11329;BME280;5719;42.714;23.732;2023-09-19T10:40:28;94639.28;;;26.99;46.69
11329;BME280;5719;42.714;23.732;2023-09-19T10:43:04;94635.38;;;26.75;45.98
11329;BME280;5719;42.714;23.732;2023-09-19T10:45:33;94631.69;;;26.50;46.65
11329;BME280;5719;42.714;23.732;2023-09-19T10:48:00;94630.28;;;26.41;47.63
11329;BME280;5719;42.714;23.732;2023-09-19T10:50:31;94630.06;;;26.36;47.81
11329;BME280;5719;42.714;23.732;2023-09-19T10:53:03;94627.81;;;26.32;47.56
11329;BME280;5719;42.714;23.732;2023-09-19T10:55:35;94623.56;;;26.45;47.33
11329;BME280;5719;42.714;23.732;2023-09-19T10:58:03;94610.72;;;26.55;46.84
11329;BME280;5719;42.714;23.732;2023-09-19T11:01:01;94615.16;;;27.00;47.37
11329;BME280;5719;42.714;23.732;2023-09-19T11:03:34;94612.44;;;27.26;45.96
11329;BME280;5719;42.714;23.732;2023-09-19T11:06:10;94616.34;;;27.24;45.90
11329;BME280;5719;42.714;23.732;2023-09-19T11:08:58;94609.94;;;27.45;47.61
11329;BME280;5719;42.714;23.732;2023-09-19T11:11:47;94609.50;;;27.61;44.43
11329;BME280;5719;42.714;23.732;2023-09-19T11:14:40;94602.59;;;27.40;44.87
11329;BME280;5719;42.714;23.732;2023-09-19T11:17:40;94613.72;;;27.04;45.19
11329;BME280;5719;42.714;23.732;2023-09-19T11:20:25;94611.31;;;27.03;47.26
11329;BME280;5719;42.714;23.732;2023-09-19T11:23:18;94605.53;;;27.19;47.79
11329;BME280;5719;42.714;23.732;2023-09-19T11:25:51;94595.50;;;27.27;45.63
11329;BME280;5719;42.714;23.732;2023-09-19T11:28:34;94604.25;;;27.35;45.03
11329;BME280;5719;42.714;23.732;2023-09-19T11:34:43;94595.09;;;27.30;45.20
11329;BME280;5719;42.714;23.732;2023-09-19T11:40:36;94583.81;;;27.42;46.27
11329;BME280;5719;42.714;23.732;2023-09-19T11:43:29;94579.91;;;27.44;46.54
11329;BME280;5719;42.714;23.732;2023-09-19T11:46:07;94578.84;;;27.65;46.10
11329;BME280;5719;42.714;23.732;2023-09-19T11:48:35;94574.69;;;27.75;46.37
11329;BME280;5719;42.714;23.732;2023-09-19T11:51:17;94582.00;;;27.87;46.42
11329;BME280;5719;42.714;23.732;2023-09-19T11:53:53;94570.88;;;27.96;46.23
11329;BME280;5719;42.714;23.732;2023-09-19T11:56:21;94564.22;;;28.18;44.90
11329;BME280;5719;42.714;23.732;2023-09-19T11:58:50;94565.69;;;28.39;43.81
11329;BME280;5719;42.714;23.732;2023-09-19T12:01:25;94551.34;;;28.65;43.33
11329;BME280;5719;42.714;23.732;2023-09-19T12:03:55;94541.13;;;28.87;42.27
11329;BME280;5719;42.714;23.732;2023-09-19T12:06:24;94536.84;;;29.04;42.91
11329;BME280;5719;42.714;23.732;2023-09-19T12:08:51;94537.75;;;29.34;41.72
11329;BME280;5719;42.714;23.732;2023-09-19T12:11:20;94531.59;;;29.52;40.75
11329;BME280;5719;42.714;23.732;2023-09-19T12:13:48;94534.31;;;29.63;40.11
11329;BME280;5719;42.714;23.732;2023-09-19T12:16:16;94532.53;;;29.28;41.76
11329;BME280;5719;42.714;23.732;2023-09-19T12:18:49;94522.28;;;29.25;42.26
11329;BME280;5719;42.714;23.732;2023-09-19T12:21:24;94527.47;;;29.01;42.10
11329;BME280;5719;42.714;23.732;2023-09-19T12:24:13;94528.34;;;28.95;41.35
11329;BME280;5719;42.714;23.732;2023-09-19T12:26:43;94528.19;;;28.90;41.62
11329;BME280;5719;42.714;23.732;2023-09-19T12:29:15;94525.16;;;28.87;42.02
11329;BME280;5719;42.714;23.732;2023-09-19T12:31:52;94526.34;;;28.91;40.67
11329;BME280;5719;42.714;23.732;2023-09-19T12:34:25;94519.25;;;29.03;41.51
11329;BME280;5719;42.714;23.732;2023-09-19T12:37:07;94518.38;;;29.09;40.29
11329;BME280;5719;42.714;23.732;2023-09-19T12:39:39;94524.06;;;29.12;41.24
11329;BME280;5719;42.714;23.732;2023-09-19T12:42:08;94522.44;;;29.30;41.33
11329;BME280;5719;42.714;23.732;2023-09-19T12:44:37;94516.66;;;29.51;40.71
11329;BME280;5719;42.714;23.732;2023-09-19T12:47:11;94511.28;;;29.39;40.27
11329;BME280;5719;42.714;23.732;2023-09-19T12:50:07;94513.22;;;29.26;39.92
11329;BME280;5719;42.714;23.732;2023-09-19T12:52:40;94519.63;;;29.25;39.89
11329;BME280;5719;42.714;23.732;2023-09-19T12:55:07;94510.94;;;29.47;39.70
11329;BME280;5719;42.714;23.732;2023-09-19T12:57:36;94509.69;;;29.80;39.27
11329;BME280;5719;42.714;23.732;2023-09-19T13:00:06;94497.94;;;29.99;39.50
11329;BME280;5719;42.714;23.732;2023-09-19T13:02:36;94502.63;;;30.27;38.69
11329;BME280;5719;42.714;23.732;2023-09-19T13:05:03;94503.03;;;30.42;38.52
11329;BME280;5719;42.714;23.732;2023-09-19T13:07:43;94489.06;;;30.40;38.46
11329;BME280;5719;42.714;23.732;2023-09-19T13:10:11;94501.13;;;30.31;38.88
11329;BME280;5719;42.714;23.732;2023-09-19T13:12:42;94495.03;;;30.42;37.46
11329;BME280;5719;42.714;23.732;2023-09-19T13:15:14;94491.88;;;30.45;37.54
11329;BME280;5719;42.714;23.732;2023-09-19T13:17:44;94485.34;;;30.41;37.26
11329;BME280;5719;42.714;23.732;2023-09-19T13:20:21;94490.47;;;30.42;36.76